Burlington International Airport Burlington US
ICAO: KBTV
IATA: BTV
Category: Medium
Scheduled Services: Yes

Elevation: 335 ft
TransAlt. 18000 ft.

Airport Communications:
APP/DEP:121.1
ATIS:123.8
CTAF:118.3
GND:121.9
ANG OPS:125.125
ARNG OPS:41.2
RDO:122.2
TWR:118.3
UNICOM:122.95

KBTV Zoom In..

Runways:

(A) RW 01 length 3611 ft width 75 ft
---- / hdg 6

(B) RW 15 length 8320 ft width 150 ft
ILS 110.30 / hdg 146

(C) RW 19 length 3611 ft width 75 ft
---- / hdg 186

(D) RW 33 length 8320 ft width 150 ft
ILS 110.30 / hdg 326

Location; KBTV
Day. 17 / Time. 06.54 Zulu
* Altimeter: 29.77
* Temperature: 27° c. 80.6°f.
* Wind from: 190° Speed 14 kn.
Dewpoint: 20° c.
Visibility: 10 Statute Miles.
Clouds: Few 9000 ft.
Clouds: Scattered 11000 ft.

KBTV 170654Z 19014KT 10SM FEW090 SCT110 27/20 A2977 RMK AO2 SLP077 T02670200


Wind From 190°
Speed 14 kn.

 
 
jpsmedia.com for Web Design worldairports.se 2018   terms of use